Time,TemperatureF,DewpointF,PressureIn,WindDirection,WindDirectionDegrees,WindSpeedMPH,WindSpeedGustMPH,Humidity,HourlyPrecipIn,Conditions,Clouds,dailyrainin,SoftwareType,DateUTC
2013-04-06 00:02:00,36.0,25.0,-100.00,West,264,27.0,37.0,64,0.00,,,-99.99,,2013-04-06 06:02:00,
2013-04-06 00:12:00,36.0,25.0,-100.00,West,267,27.0,37.0,64,0.00,,,-99.99,,2013-04-06 06:12:00,
2013-04-06 00:22:00,36.0,24.0,-100.00,West,271,26.0,40.0,61,0.00,,,-99.99,,2013-04-06 06:22:00,
2013-04-06 00:32:00,35.0,24.0,-100.00,West,268,28.0,39.0,62,0.00,,,-99.99,,2013-04-06 06:32:00,
2013-04-06 00:42:00,35.0,23.0,-100.00,West,268,26.0,36.0,62,0.00,,,-99.99,,2013-04-06 06:42:00,
2013-04-06 00:52:00,35.0,23.0,-100.00,West,267,30.0,41.0,61,0.00,,,-99.99,,2013-04-06 06:52:00,
2013-04-06 01:03:00,35.0,24.0,-100.00,West,267,29.0,37.0,63,0.00,,,-99.99,,2013-04-06 07:03:00,
2013-04-06 01:12:00,35.0,24.0,-100.00,West,267,29.0,37.0,63,0.00,,,-99.99,,2013-04-06 07:12:00,
2013-04-06 01:22:00,35.0,23.0,-100.00,West,265,28.0,37.0,62,0.00,,,-99.99,,2013-04-06 07:22:00,
2013-04-06 01:33:00,35.0,23.0,-100.00,West,264,26.0,37.0,62,0.00,,,-99.99,,2013-04-06 07:33:00,
2013-04-06 01:43:00,35.0,23.0,-100.00,West,264,26.0,34.0,63,0.00,,,-99.99,,2013-04-06 07:43:00,
2013-04-06 01:52:00,34.0,23.0,-100.00,West,260,25.0,37.0,63,0.00,,,-99.99,,2013-04-06 07:52:00,
2013-04-06 02:02:00,34.0,23.0,-100.00,West,264,22.0,32.0,64,0.00,,,-99.99,,2013-04-06 08:02:00,
2013-04-06 02:12:00,33.0,24.0,-100.00,West,261,21.0,32.0,67,0.00,,,-99.99,,2013-04-06 08:12:00,
2013-04-06 02:22:00,33.0,24.0,-100.00,WSW,254,20.0,27.0,69,0.00,,,-99.99,,2013-04-06 08:22:00,
2013-04-06 02:32:00,33.0,24.0,-100.00,WSW,254,19.0,26.0,71,0.00,,,-99.99,,2013-04-06 08:32:00,
2013-04-06 02:42:00,33.0,24.0,-100.00,WSW,253,18.0,24.0,69,0.00,,,-99.99,,2013-04-06 08:42:00,
2013-04-06 02:52:00,33.0,24.0,-100.00,WSW,257,21.0,30.0,68,0.00,,,-99.99,,2013-04-06 08:52:00,
2013-04-06 03:02:00,33.0,24.0,-100.00,West,261,21.0,30.0,68,0.00,,,-99.99,,2013-04-06 09:02:00,
2013-04-06 03:12:00,33.0,23.0,-100.00,West,260,22.0,32.0,68,0.00,,,-99.99,,2013-04-06 09:12:00,
2013-04-06 03:22:00,33.0,23.0,-100.00,West,264,22.0,29.0,66,0.00,,,-99.99,,2013-04-06 09:22:00,
2013-04-06 03:32:00,33.0,24.0,-100.00,WSW,256,21.0,28.0,69,0.00,,,-99.99,,2013-04-06 09:32:00,
2013-04-06 03:43:00,32.0,23.0,-100.00,WSW,253,21.0,27.0,69,0.00,,,-99.99,,2013-04-06 09:43:00,
2013-04-06 03:52:00,32.0,23.0,-100.00,WSW,254,20.0,27.0,69,0.00,,,-99.99,,2013-04-06 09:52:00,
2013-04-06 04:03:00,32.0,23.0,-100.00,WSW,254,18.0,26.0,68,0.00,,,-99.99,,2013-04-06 10:03:00,
2013-04-06 04:13:00,32.0,23.0,-100.00,WSW,254,19.0,27.0,69,0.00,,,-99.99,,2013-04-06 10:13:00,
2013-04-06 04:22:00,32.0,23.0,-100.00,WSW,253,20.0,26.0,67,0.00,,,-99.99,,2013-04-06 10:22:00,
2013-04-06 04:33:00,33.0,23.0,-100.00,WSW,257,19.0,27.0,66,0.00,,,-99.99,,2013-04-06 10:33:00,
2013-04-06 04:42:00,33.0,23.0,-100.00,West,264,20.0,28.0,66,0.00,,,-99.99,,2013-04-06 10:42:00,
2013-04-06 04:52:00,32.0,23.0,-100.00,West,264,17.0,25.0,67,0.00,,,-99.99,,2013-04-06 10:52:00,
2013-04-06 05:02:00,33.0,23.0,-100.00,West,261,22.0,31.0,64,0.00,,,-99.99,,2013-04-06 11:02:00,
2013-04-06 05:12:00,33.0,23.0,-100.00,West,261,24.0,34.0,65,0.00,,,-99.99,,2013-04-06 11:12:00,
2013-04-06 05:22:00,33.0,23.0,-100.00,West,261,24.0,35.0,67,0.00,,,-99.99,,2013-04-06 11:22:00,
2013-04-06 05:33:00,33.0,23.0,-100.00,West,263,22.0,32.0,68,0.00,,,-99.99,,2013-04-06 11:33:00,
2013-04-06 05:42:00,32.0,23.0,-100.00,West,261,22.0,32.0,69,0.00,,,-99.99,,2013-04-06 11:42:00,
2013-04-06 05:52:00,32.0,23.0,-100.00,West,264,22.0,32.0,69,0.00,,,-99.99,,2013-04-06 11:52:00,
2013-04-06 06:02:00,32.0,24.0,-100.00,West,261,20.0,30.0,70,0.00,,,-99.99,,2013-04-06 12:02:00,
2013-04-06 06:12:00,32.0,24.0,-100.00,West,260,20.0,30.0,73,0.00,,,-99.99,,2013-04-06 12:12:00,
2013-04-06 06:22:00,32.0,24.0,-100.00,WSW,256,21.0,33.0,74,0.00,,,-99.99,,2013-04-06 12:22:00,
2013-04-06 06:32:00,32.0,25.0,-100.00,WSW,254,19.0,28.0,75,0.00,,,-99.99,,2013-04-06 12:32:00,
2013-04-06 06:43:00,32.0,25.0,-100.00,WSW,250,21.0,29.0,75,0.00,,,-99.99,,2013-04-06 12:43:00,
2013-04-06 06:52:00,32.0,25.0,-100.00,WSW,251,19.0,29.0,75,0.00,,,-99.99,,2013-04-06 12:52:00,
2013-04-06 07:02:00,33.0,25.0,-100.00,WSW,253,17.0,24.0,72,0.00,,,-99.99,,2013-04-06 13:02:00,
2013-04-06 07:12:00,33.0,25.0,-100.00,WSW,253,16.0,24.0,72,0.00,,,-99.99,,2013-04-06 13:12:00,
2013-04-06 07:23:00,33.0,24.0,-100.00,WSW,253,12.0,17.0,70,0.00,,,-99.99,,2013-04-06 13:23:00,
2013-04-06 07:32:00,33.0,24.0,-100.00,WSW,251,13.0,22.0,69,0.00,,,-99.99,,2013-04-06 13:32:00,
2013-04-06 07:42:00,34.0,24.0,-100.00,WSW,248,16.0,22.0,68,0.00,,,-99.99,,2013-04-06 13:42:00,
2013-04-06 07:52:00,34.0,24.0,-100.00,WSW,251,13.0,19.0,68,0.00,,,-99.99,,2013-04-06 13:52:00,
2013-04-06 08:04:00,34.0,24.0,-100.00,WSW,251,14.0,21.0,65,0.00,,,-99.99,,2013-04-06 14:04:00,
2013-04-06 08:12:00,35.0,24.0,-100.00,WSW,257,14.0,21.0,64,0.00,,,-99.99,,2013-04-06 14:12:00,
2013-04-06 08:22:00,35.0,24.0,-100.00,West,271,14.0,22.0,65,0.00,,,-99.99,,2013-04-06 14:22:00,
2013-04-06 08:32:00,35.0,24.0,-100.00,West,275,12.0,19.0,64,0.00,,,-99.99,,2013-04-06 14:32:00,
2013-04-06 08:42:00,36.0,24.0,-100.00,West,274,11.0,17.0,62,0.00,,,-99.99,,2013-04-06 14:42:00,
2013-04-06 08:52:00,37.0,24.0,-100.00,WNW,289,12.0,20.0,60,0.00,,,-99.99,,2013-04-06 14:52:00,
2013-04-06 09:02:00,37.0,24.0,-100.00,WNW,292,13.0,22.0,60,0.00,,,-99.99,,2013-04-06 15:02:00,
2013-04-06 09:12:00,37.0,25.0,-100.00,WNW,296,14.0,22.0,61,0.00,,,-99.99,,2013-04-06 15:12:00,
2013-04-06 09:22:00,38.0,25.0,-100.00,WNW,282,12.0,19.0,58,0.00,,,-99.99,,2013-04-06 15:22:00,
2013-04-06 09:33:00,39.0,24.0,-100.00,WNW,291,14.0,23.0,55,0.00,,,-99.99,,2013-04-06 15:33:00,
2013-04-06 09:43:00,38.0,24.0,-100.00,West,277,15.0,24.0,56,0.00,,,-99.99,,2013-04-06 15:43:00,
2013-04-06 09:52:00,38.0,24.0,-100.00,West,272,20.0,30.0,57,0.00,,,-99.99,,2013-04-06 15:52:00,
2013-04-06 10:05:00,38.0,23.0,-100.00,West,274,20.0,32.0,54,0.00,,,-99.99,,2013-04-06 16:05:00,
2013-04-06 10:17:00,37.0,24.0,-100.00,West,268,23.0,34.0,58,0.00,,,-99.99,,2013-04-06 16:17:00,
2013-04-06 10:23:00,39.0,24.0,-100.00,West,280,18.0,30.0,54,0.00,,,-99.99,,2013-04-06 16:23:00,
2013-04-06 10:32:00,39.0,24.0,-100.00,WNW,287,21.0,30.0,53,0.00,,,-99.99,,2013-04-06 16:32:00,
2013-04-06 10:42:00,40.0,24.0,-100.00,West,281,21.0,30.0,53,0.00,,,-99.99,,2013-04-06 16:42:00,
2013-04-06 10:52:00,40.0,23.0,-100.00,West,277,22.0,33.0,51,0.00,,,-99.99,,2013-04-06 16:52:00,
2013-04-06 11:02:00,40.0,22.0,-100.00,West,275,24.0,34.0,49,0.00,,,-99.99,,2013-04-06 17:02:00,
2013-04-06 11:12:00,41.0,22.0,-100.00,West,281,25.0,34.0,47,0.00,,,-99.99,,2013-04-06 17:12:00,
2013-04-06 11:22:00,40.0,23.0,-100.00,West,277,27.0,37.0,50,0.00,,,-99.99,,2013-04-06 17:22:00,
2013-04-06 11:32:00,40.0,23.0,-100.00,West,281,24.0,33.0,51,0.00,,,-99.99,,2013-04-06 17:32:00,
2013-04-06 11:42:00,40.0,23.0,-100.00,West,277,24.0,35.0,50,0.00,,,-99.99,,2013-04-06 17:42:00,
2013-04-06 11:52:00,40.0,23.0,-100.00,West,281,22.0,34.0,51,0.00,,,-99.99,,2013-04-06 17:52:00,
2013-04-06 12:03:00,40.0,23.0,-100.00,West,280,23.0,34.0,51,0.00,,,-99.99,,2013-04-06 18:03:00,
2013-04-06 12:12:00,40.0,23.0,-100.00,West,280,23.0,34.0,51,0.00,,,-99.99,,2013-04-06 18:12:00,
2013-04-06 12:23:00,42.0,23.0,-100.00,West,274,22.0,35.0,46,0.00,,,-99.99,,2013-04-06 18:23:00,
2013-04-06 12:32:00,42.0,24.0,-100.00,West,281,21.0,30.0,47,0.00,,,-99.99,,2013-04-06 18:32:00,
2013-04-06 12:42:00,43.0,23.0,-100.00,WNW,282,22.0,30.0,44,0.00,,,-99.99,,2013-04-06 18:42:00,
2013-04-06 12:52:00,43.0,23.0,-100.00,West,278,21.0,34.0,46,0.00,,,-99.99,,2013-04-06 18:52:00,
2013-04-06 13:02:00,43.0,24.0,-100.00,West,271,23.0,31.0,46,0.00,,,-99.99,,2013-04-06 19:02:00,
2013-04-06 13:12:00,43.0,23.0,-100.00,West,275,22.0,31.0,44,0.00,,,-99.99,,2013-04-06 19:12:00,
2013-04-06 13:22:00,44.0,25.0,-100.00,West,281,21.0,29.0,45,0.00,,,-99.99,,2013-04-06 19:22:00,
2013-04-06 13:32:00,43.0,24.0,-100.00,West,274,24.0,32.0,48,0.00,,,-99.99,,2013-04-06 19:32:00,
2013-04-06 13:42:00,43.0,25.0,-100.00,West,277,21.0,29.0,47,0.00,,,-99.99,,2013-04-06 19:42:00,
2013-04-06 13:52:00,43.0,25.0,-100.00,WNW,282,20.0,34.0,48,0.00,,,-99.99,,2013-04-06 19:52:00,
2013-04-06 14:03:00,45.0,23.0,-100.00,West,274,24.0,34.0,41,0.00,,,-99.99,,2013-04-06 20:03:00,
2013-04-06 14:12:00,45.0,23.0,-100.00,West,268,23.0,34.0,41,0.00,,,-99.99,,2013-04-06 20:12:00,
2013-04-06 14:22:00,44.0,21.0,-100.00,West,278,23.0,35.0,39,0.00,,,-99.99,,2013-04-06 20:22:00,
2013-04-06 14:32:00,42.0,24.0,-100.00,WNW,289,25.0,39.0,48,0.00,,,-99.99,,2013-04-06 20:32:00,
2013-04-06 14:42:00,42.0,27.0,-100.00,WNW,288,24.0,35.0,56,0.00,,,-99.99,,2013-04-06 20:42:00,
2013-04-06 14:52:00,38.0,31.0,-100.00,West,277,26.0,39.0,75,0.01,,,-99.99,,2013-04-06 20:52:00,
2013-04-06 15:02:00,42.0,29.0,-100.00,West,280,24.0,36.0,60,0.00,,,-99.99,,2013-04-06 21:02:00,
2013-04-06 15:13:00,43.0,28.0,-100.00,West,271,22.0,35.0,56,0.00,,,-99.99,,2013-04-06 21:13:00,
2013-04-06 15:22:00,43.0,26.0,-100.00,West,267,23.0,34.0,52,0.00,,,-99.99,,2013-04-06 21:22:00,
2013-04-06 15:33:00,43.0,28.0,-100.00,WSW,258,21.0,29.0,55,0.00,,,-99.99,,2013-04-06 21:33:00,
2013-04-06 15:43:00,44.0,24.0,-100.00,West,268,19.0,31.0,45,0.00,,,-99.99,,2013-04-06 21:43:00,
2013-04-06 15:52:00,44.0,25.0,-100.00,West,280,18.0,26.0,48,0.00,,,-99.99,,2013-04-06 21:52:00,
2013-04-06 16:03:00,38.0,33.0,-100.00,West,281,22.0,31.0,83,0.14,,,-99.99,,2013-04-06 22:03:00,
2013-04-06 16:13:00,40.0,34.0,-100.00,West,277,17.0,29.0,80,0.00,,,-99.99,,2013-04-06 22:13:00,
2013-04-06 16:23:00,43.0,29.0,-100.00,West,265,16.0,23.0,57,0.00,,,-99.99,,2013-04-06 22:23:00,
2013-04-06 16:34:00,45.0,27.0,-100.00,West,272,20.0,30.0,51,0.00,,,-99.99,,2013-04-06 22:34:00,
2013-04-06 16:43:00,45.0,25.0,-100.00,West,272,21.0,35.0,44,0.00,,,-99.99,,2013-04-06 22:43:00,
2013-04-06 16:53:00,45.0,25.0,-100.00,West,268,22.0,30.0,45,0.00,,,-99.99,,2013-04-06 22:53:00,
2013-04-06 17:03:00,45.0,23.0,-100.00,West,280,23.0,34.0,42,0.00,,,-99.99,,2013-04-06 23:03:00,
2013-04-06 17:13:00,45.0,26.0,-100.00,WNW,282,21.0,30.0,48,0.00,,,-99.99,,2013-04-06 23:13:00,
2013-04-06 17:23:00,44.0,25.0,-100.00,WNW,289,17.0,27.0,46,0.00,,,-99.99,,2013-04-06 23:23:00,
2013-04-06 17:34:00,42.0,26.0,-100.00,West,280,21.0,32.0,52,0.00,,,-99.99,,2013-04-06 23:34:00,
2013-04-06 17:42:00,43.0,25.0,-100.00,West,264,19.0,31.0,49,0.00,,,-99.99,,2013-04-06 23:42:00,
2013-04-06 17:52:00,43.0,25.0,-100.00,West,270,18.0,27.0,47,0.00,,,-99.99,,2013-04-06 23:52:00,
2013-04-06 18:02:00,43.0,25.0,-100.00,West,267,19.0,29.0,49,0.00,,,-99.99,,2013-04-07 00:02:00,
2013-04-06 18:12:00,43.0,25.0,-100.00,West,264,20.0,30.0,50,0.00,,,-99.99,,2013-04-07 00:12:00,
2013-04-06 18:22:00,43.0,25.0,-100.00,West,275,16.0,31.0,49,0.00,,,-99.99,,2013-04-07 00:22:00,
2013-04-06 18:32:00,41.0,27.0,-100.00,West,261,24.0,37.0,57,0.00,,,-99.99,,2013-04-07 00:32:00,
2013-04-06 18:42:00,41.0,27.0,-100.00,West,261,23.0,37.0,58,0.00,,,-99.99,,2013-04-07 00:42:00,
2013-04-06 18:52:00,41.0,27.0,-100.00,West,265,12.0,19.0,56,0.00,,,-99.99,,2013-04-07 00:52:00,
2013-04-06 19:02:00,41.0,28.0,-100.00,WNW,291,11.0,22.0,58,0.00,,,-99.99,,2013-04-07 01:02:00,
2013-04-06 19:12:00,40.0,28.0,-100.00,WNW,289,16.0,28.0,62,0.00,,,-99.99,,2013-04-07 01:12:00,
2013-04-06 19:22:00,40.0,29.0,-100.00,West,270,19.0,29.0,64,0.00,,,-99.99,,2013-04-07 01:22:00,
2013-04-06 19:32:00,40.0,28.0,-100.00,West,264,17.0,24.0,62,0.00,,,-99.99,,2013-04-07 01:32:00,
2013-04-06 19:42:00,40.0,27.0,-100.00,West,265,14.0,23.0,59,0.00,,,-99.99,,2013-04-07 01:42:00,
2013-04-06 19:52:00,41.0,27.0,-100.00,West,270,14.0,21.0,57,0.00,,,-99.99,,2013-04-07 01:52:00,
2013-04-06 20:03:00,40.0,27.0,-100.00,West,275,12.0,20.0,58,0.00,,,-99.99,,2013-04-07 02:03:00,
2013-04-06 20:12:00,40.0,27.0,-100.00,West,277,12.0,21.0,58,0.00,,,-99.99,,2013-04-07 02:12:00,
2013-04-06 20:23:00,40.0,27.0,-100.00,West,272,11.0,15.0,60,0.00,,,-99.99,,2013-04-07 02:23:00,
2013-04-06 20:32:00,40.0,27.0,-100.00,West,265,10.0,14.0,60,0.00,,,-99.99,,2013-04-07 02:32:00,
2013-04-06 20:42:00,40.0,27.0,-100.00,West,264,11.0,18.0,60,0.00,,,-99.99,,2013-04-07 02:42:00,
2013-04-06 20:52:00,40.0,27.0,-100.00,West,260,14.0,20.0,60,0.00,,,-99.99,,2013-04-07 02:52:00,
2013-04-06 21:02:00,40.0,28.0,-100.00,West,265,12.0,21.0,62,0.00,,,-99.99,,2013-04-07 03:02:00,
2013-04-06 21:12:00,39.0,30.0,-100.00,West,274,16.0,27.0,70,0.00,,,-99.99,,2013-04-07 03:12:00,
2013-04-06 21:22:00,36.0,32.0,-100.00,West,275,17.0,27.0,84,0.01,,,-99.99,,2013-04-07 03:22:00,
2013-04-06 21:34:00,37.0,30.0,-100.00,WSW,243,16.0,23.0,77,0.00,,,-99.99,,2013-04-07 03:34:00,
2013-04-06 21:43:00,37.0,30.0,-100.00,WSW,250,14.0,20.0,74,0.00,,,-99.99,,2013-04-07 03:43:00,
2013-04-06 21:53:00,37.0,31.0,-100.00,WSW,253,16.0,22.0,79,0.00,,,-99.99,,2013-04-07 03:53:00,
2013-04-06 22:03:00,36.0,31.0,-100.00,WSW,253,16.0,21.0,80,0.00,,,-99.99,,2013-04-07 04:03:00,
2013-04-06 22:13:00,36.0,31.0,-100.00,WSW,254,16.0,21.0,80,0.00,,,-99.99,,2013-04-07 04:13:00,
2013-04-06 22:23:00,35.0,32.0,-100.00,West,268,17.0,26.0,87,0.01,,,-99.99,,2013-04-07 04:23:00,
2013-04-06 22:32:00,36.0,32.0,-100.00,West,264,13.0,20.0,86,0.00,,,-99.99,,2013-04-07 04:32:00,
2013-04-06 22:43:00,36.0,32.0,-100.00,West,272,15.0,24.0,85,0.00,,,-99.99,,2013-04-07 04:43:00,
2013-04-06 22:52:00,36.0,32.0,-100.00,West,268,14.0,21.0,85,0.00,,,-99.99,,2013-04-07 04:52:00,
2013-04-06 23:02:00,36.0,32.0,-100.00,West,261,17.0,24.0,85,0.01,,,-99.99,,2013-04-07 05:02:00,
2013-04-06 23:12:00,35.0,31.0,-100.00,West,260,16.0,27.0,85,0.01,,,-99.99,,2013-04-07 05:12:00,
2013-04-06 23:22:00,35.0,30.0,-100.00,WSW,253,16.0,24.0,81,0.00,,,-99.99,,2013-04-07 05:22:00,
2013-04-06 23:33:00,35.0,30.0,-100.00,WSW,257,14.0,22.0,80,0.00,,,-99.99,,2013-04-07 05:33:00,
2013-04-06 23:42:00,36.0,30.0,-100.00,WSW,254,16.0,24.0,80,0.00,,,-99.99,,2013-04-07 05:42:00,
2013-04-06 23:52:00,35.0,30.0,-100.00,WSW,250,17.0,24.0,82,0.00,,,-99.99,,2013-04-07 05:52:00,